sensor_id;sensor_type;location;lat;lon;timestamp;P1;durP1;ratioP1;P2;durP2;ratioP2
29776;SDS011;16677;52.224;7.484;2023-02-14T16:48:35;22.40;;;16.50;;
29776;SDS011;16677;52.224;7.484;2023-02-14T16:51:02;29.88;;;21.33;;
29776;SDS011;16677;52.224;7.484;2023-02-14T16:53:29;27.20;;;20.60;;
29776;SDS011;16677;52.224;7.484;2023-02-14T16:55:57;24.60;;;21.08;;
29776;SDS011;16677;52.224;7.484;2023-02-14T16:58:26;30.60;;;25.27;;
29776;SDS011;16677;52.224;7.484;2023-02-14T17:00:57;27.73;;;23.67;;
29776;SDS011;16677;52.224;7.484;2023-02-14T17:03:25;24.23;;;20.17;;
29776;SDS011;16677;52.224;7.484;2023-02-14T17:05:53;23.80;;;18.47;;
29776;SDS011;16677;52.224;7.484;2023-02-14T17:08:22;22.07;;;17.63;;
29776;SDS011;16677;52.224;7.484;2023-02-14T17:15:45;23.20;;;19.10;;
29776;SDS011;16677;52.224;7.484;2023-02-14T17:18:12;24.30;;;21.53;;
29776;SDS011;16677;52.224;7.484;2023-02-14T17:20:44;20.90;;;17.20;;
29776;SDS011;16677;52.224;7.484;2023-02-14T17:23:11;24.07;;;18.47;;
29776;SDS011;16677;52.224;7.484;2023-02-14T17:25:38;28.27;;;22.03;;
29776;SDS011;16677;52.224;7.484;2023-02-14T17:28:05;27.10;;;20.37;;
29776;SDS011;16677;52.224;7.484;2023-02-14T17:30:32;26.13;;;20.33;;
29776;SDS011;16677;52.224;7.484;2023-02-14T17:32:58;33.87;;;25.33;;
29776;SDS011;16677;52.224;7.484;2023-02-14T17:35:25;28.93;;;21.27;;
29776;SDS011;16677;52.224;7.484;2023-02-14T17:37:52;27.77;;;21.57;;
29776;SDS011;16677;52.224;7.484;2023-02-14T17:40:19;28.70;;;23.03;;
29776;SDS011;16677;52.224;7.484;2023-02-14T17:42:46;30.03;;;22.40;;
29776;SDS011;16677;52.224;7.484;2023-02-14T17:45:13;31.87;;;23.20;;
29776;SDS011;16677;52.224;7.484;2023-02-14T17:47:40;27.80;;;20.67;;
29776;SDS011;16677;52.224;7.484;2023-02-14T17:50:08;30.50;;;23.20;;
29776;SDS011;16677;52.224;7.484;2023-02-14T17:52:36;30.67;;;23.60;;
29776;SDS011;16677;52.224;7.484;2023-02-14T17:55:04;27.50;;;20.70;;
29776;SDS011;16677;52.224;7.484;2023-02-14T17:57:32;28.67;;;21.87;;
29776;SDS011;16677;52.224;7.484;2023-02-14T17:59:59;26.93;;;21.57;;
29776;SDS011;16677;52.224;7.484;2023-02-14T18:02:27;32.57;;;24.73;;
29776;SDS011;16677;52.224;7.484;2023-02-14T18:04:54;30.47;;;23.37;;
29776;SDS011;16677;52.224;7.484;2023-02-14T18:07:25;30.87;;;27.20;;
29776;SDS011;16677;52.224;7.484;2023-02-14T18:10:09;31.45;;;27.70;;
29776;SDS011;16677;52.224;7.484;2023-02-14T18:12:41;29.33;;;26.23;;
29776;SDS011;16677;52.224;7.484;2023-02-14T18:15:24;33.50;;;28.52;;
29776;SDS011;16677;52.224;7.484;2023-02-14T18:17:52;42.72;;;38.17;;
29776;SDS011;16677;52.224;7.484;2023-02-14T18:20:22;34.22;;;30.52;;
29776;SDS011;16677;52.224;7.484;2023-02-14T18:22:58;29.67;;;26.60;;
29776;SDS011;16677;52.224;7.484;2023-02-14T18:25:35;32.83;;;29.45;;
29776;SDS011;16677;52.224;7.484;2023-02-14T18:28:03;31.83;;;28.40;;
29776;SDS011;16677;52.224;7.484;2023-02-14T18:31:10;33.88;;;30.33;;
29776;SDS011;16677;52.224;7.484;2023-02-14T18:33:45;30.08;;;26.83;;
29776;SDS011;16677;52.224;7.484;2023-02-14T18:36:19;32.42;;;29.15;;
29776;SDS011;16677;52.224;7.484;2023-02-14T18:38:50;31.40;;;28.30;;
29776;SDS011;16677;52.224;7.484;2023-02-14T18:41:18;31.73;;;28.40;;
29776;SDS011;16677;52.224;7.484;2023-02-14T18:44:05;30.87;;;27.53;;
29776;SDS011;16677;52.224;7.484;2023-02-14T18:46:53;28.23;;;24.70;;
